sensor_id;sensor_type;location;lat;lon;timestamp;pressure;altitude;pressure_sealevel;temperature;humidity
70229;BME280;57617;51.988;5.854;2022-10-22T00:02:17;100475.03;;;16.99;72.55
70229;BME280;57617;51.988;5.854;2022-10-22T00:04:45;100476.94;;;16.99;72.81
70229;BME280;57617;51.988;5.854;2022-10-22T00:07:10;100474.50;;;16.98;72.66
70229;BME280;57617;51.988;5.854;2022-10-22T00:09:36;100473.44;;;16.93;72.91
70229;BME280;57617;51.988;5.854;2022-10-22T00:12:01;100477.59;;;16.91;72.90
70229;BME280;57617;51.988;5.854;2022-10-22T00:14:26;100478.72;;;16.90;72.96
70229;BME280;57617;51.988;5.854;2022-10-22T00:16:52;100480.66;;;16.84;72.77
70229;BME280;57617;51.988;5.854;2022-10-22T00:19:17;100478.50;;;16.81;73.18
70229;BME280;57617;51.988;5.854;2022-10-22T00:21:42;100487.28;;;16.83;73.20
70229;BME280;57617;51.988;5.854;2022-10-22T00:24:07;100495.16;;;16.90;73.45
70229;BME280;57617;51.988;5.854;2022-10-22T00:26:33;100492.44;;;16.90;73.16
70229;BME280;57617;51.988;5.854;2022-10-22T00:28:58;100489.69;;;16.90;73.28
70229;BME280;57617;51.988;5.854;2022-10-22T00:31:24;100493.78;;;16.92;73.36
70229;BME280;57617;51.988;5.854;2022-10-22T00:33:49;100502.75;;;16.98;73.53
70229;BME280;57617;51.988;5.854;2022-10-22T00:36:14;100498.63;;;17.00;73.20
70229;BME280;57617;51.988;5.854;2022-10-22T00:38:40;100497.22;;;17.03;73.28
70229;BME280;57617;51.988;5.854;2022-10-22T00:41:05;100501.91;;;17.02;73.31
70229;BME280;57617;51.988;5.854;2022-10-22T00:43:31;100493.66;;;17.02;73.14
70229;BME280;57617;51.988;5.854;2022-10-22T00:45:56;100489.59;;;17.00;73.32
70229;BME280;57617;51.988;5.854;2022-10-22T00:48:24;100499.22;;;16.98;73.17
70229;BME280;57617;51.988;5.854;2022-10-22T00:51:09;100502.75;;;16.98;73.30
70229;BME280;57617;51.988;5.854;2022-10-22T00:53:42;100492.88;;;16.97;73.33
70229;BME280;57617;51.988;5.854;2022-10-22T00:56:09;100493.72;;;16.98;73.20
70229;BME280;57617;51.988;5.854;2022-10-22T00:58:38;100494.81;;;16.96;73.49
70229;BME280;57617;51.988;5.854;2022-10-22T01:01:08;100494.28;;;16.94;73.25
70229;BME280;57617;51.988;5.854;2022-10-22T01:03:37;100494.84;;;16.91;73.23
70229;BME280;57617;51.988;5.854;2022-10-22T01:06:04;100498.72;;;16.90;73.36
70229;BME280;57617;51.988;5.854;2022-10-22T01:08:42;100499.00;;;16.89;73.32
70229;BME280;57617;51.988;5.854;2022-10-22T01:11:30;100504.47;;;16.89;73.49
70229;BME280;57617;51.988;5.854;2022-10-22T01:14:12;100501.22;;;16.87;73.34
70229;BME280;57617;51.988;5.854;2022-10-22T01:17:09;100493.81;;;16.88;73.40
70229;BME280;57617;51.988;5.854;2022-10-22T01:20:05;100496.31;;;16.84;73.44
70229;BME280;57617;51.988;5.854;2022-10-22T01:22:39;100497.69;;;16.81;73.27
70229;BME280;57617;51.988;5.854;2022-10-22T01:28:39;100488.72;;;16.76;73.22
70229;BME280;57617;51.988;5.854;2022-10-22T01:31:07;100490.13;;;16.73;73.39
70229;BME280;57617;51.988;5.854;2022-10-22T01:33:35;100489.31;;;16.68;73.48
70229;BME280;57617;51.988;5.854;2022-10-22T01:36:01;100491.28;;;16.67;73.34
70229;BME280;57617;51.988;5.854;2022-10-22T01:38:27;100491.84;;;16.64;73.47
70229;BME280;57617;51.988;5.854;2022-10-22T01:40:54;100484.19;;;16.62;73.40
70229;BME280;57617;51.988;5.854;2022-10-22T01:43:20;100486.13;;;16.61;73.48
70229;BME280;57617;51.988;5.854;2022-10-22T01:45:51;100480.91;;;16.59;73.60
70229;BME280;57617;51.988;5.854;2022-10-22T01:48:33;100479.56;;;16.57;73.80
70229;BME280;57617;51.988;5.854;2022-10-22T01:51:35;100476.03;;;16.57;74.02
70229;BME280;57617;51.988;5.854;2022-10-22T01:54:39;100471.94;;;16.54;73.87
70229;BME280;57617;51.988;5.854;2022-10-22T01:57:27;100479.31;;;16.53;73.75
70229;BME280;57617;51.988;5.854;2022-10-22T02:00:05;100483.97;;;16.53;73.55
70229;BME280;57617;51.988;5.854;2022-10-22T02:03:08;100496.06;;;16.52;73.72
70229;BME280;57617;51.988;5.854;2022-10-22T02:05:57;100489.78;;;16.52;73.58
70229;BME280;57617;51.988;5.854;2022-10-22T02:08:28;100484.63;;;16.45;73.64
70229;BME280;57617;51.988;5.854;2022-10-22T02:10:56;100494.19;;;16.48;73.45
70229;BME280;57617;51.988;5.854;2022-10-22T02:13:35;100491.72;;;16.46;73.66
70229;BME280;57617;51.988;5.854;2022-10-22T02:16:04;100492.00;;;16.44;73.41
70229;BME280;57617;51.988;5.854;2022-10-22T02:18:31;100488.75;;;16.42;73.63
70229;BME280;57617;51.988;5.854;2022-10-22T02:20:59;100484.91;;;16.43;73.39
70229;BME280;57617;51.988;5.854;2022-10-22T02:23:26;100483.25;;;16.42;73.45
70229;BME280;57617;51.988;5.854;2022-10-22T02:25:59;100483.81;;;16.39;73.47
70229;BME280;57617;51.988;5.854;2022-10-22T02:28:32;100478.94;;;16.31;73.45
70229;BME280;57617;51.988;5.854;2022-10-22T02:31:09;100470.41;;;16.33;73.77
70229;BME280;57617;51.988;5.854;2022-10-22T02:33:44;100483.34;;;16.27;73.71
70229;BME280;57617;51.988;5.854;2022-10-22T02:36:12;100480.88;;;16.26;73.71
70229;BME280;57617;51.988;5.854;2022-10-22T02:38:39;100484.97;;;16.28;73.87
70229;BME280;57617;51.988;5.854;2022-10-22T02:41:05;100482.75;;;16.30;73.76
70229;BME280;57617;51.988;5.854;2022-10-22T02:43:44;100483.06;;;16.29;73.68
70229;BME280;57617;51.988;5.854;2022-10-22T02:46:10;100474.06;;;16.23;73.65
70229;BME280;57617;51.988;5.854;2022-10-22T02:48:36;100484.19;;;16.23;73.86
70229;BME280;57617;51.988;5.854;2022-10-22T02:51:02;100482.81;;;16.25;73.69
70229;BME280;57617;51.988;5.854;2022-10-22T02:53:27;100480.38;;;16.24;73.73
70229;BME280;57617;51.988;5.854;2022-10-22T02:55:52;100482.56;;;16.22;73.83
70229;BME280;57617;51.988;5.854;2022-10-22T02:58:18;100481.44;;;16.23;74.05
70229;BME280;57617;51.988;5.854;2022-10-22T03:00:43;100477.13;;;16.17;73.79
70229;BME280;57617;51.988;5.854;2022-10-22T03:03:08;100485.66;;;16.15;73.87
70229;BME280;57617;51.988;5.854;2022-10-22T03:05:33;100487.56;;;16.15;74.00
70229;BME280;57617;51.988;5.854;2022-10-22T03:07:59;100483.47;;;16.12;73.87
70229;BME280;57617;51.988;5.854;2022-10-22T03:10:24;100487.28;;;16.16;73.91
70229;BME280;57617;51.988;5.854;2022-10-22T03:12:49;100484.53;;;16.16;73.89
70229;BME280;57617;51.988;5.854;2022-10-22T03:15:15;100486.16;;;16.17;73.80
70229;BME280;57617;51.988;5.854;2022-10-22T03:17:40;100480.97;;;16.16;73.75
70229;BME280;57617;51.988;5.854;2022-10-22T03:20:05;100484.53;;;16.16;73.91
70229;BME280;57617;51.988;5.854;2022-10-22T03:22:32;100485.69;;;16.10;73.92
70229;BME280;57617;51.988;5.854;2022-10-22T03:25:00;100488.16;;;16.07;74.01
70229;BME280;57617;51.988;5.854;2022-10-22T03:27:27;100486.53;;;16.06;74.04
70229;BME280;57617;51.988;5.854;2022-10-22T03:29:54;100492.00;;;16.06;74.25
70229;BME280;57617;51.988;5.854;2022-10-22T03:32:21;100492.00;;;16.06;74.23
70229;BME280;57617;51.988;5.854;2022-10-22T03:34:46;100496.38;;;16.07;74.26
70229;BME280;57617;51.988;5.854;2022-10-22T03:37:11;100495.56;;;16.06;74.16
70229;BME280;57617;51.988;5.854;2022-10-22T03:39:37;100493.38;;;16.03;74.02
70229;BME280;57617;51.988;5.854;2022-10-22T03:42:04;100503.22;;;16.04;74.13
70229;BME280;57617;51.988;5.854;2022-10-22T03:44:30;100501.31;;;16.05;74.21
70229;BME280;57617;51.988;5.854;2022-10-22T03:46:56;100504.91;;;16.05;74.27
70229;BME280;57617;51.988;5.854;2022-10-22T03:49:21;100504.91;;;16.05;74.30
70229;BME280;57617;51.988;5.854;2022-10-22T03:51:47;100510.06;;;16.07;74.37
70229;BME280;57617;51.988;5.854;2022-10-22T03:54:12;100509.00;;;16.08;74.38
70229;BME280;57617;51.988;5.854;2022-10-22T03:56:37;100510.63;;;16.09;74.19
70229;BME280;57617;51.988;5.854;2022-10-22T03:59:03;100516.91;;;16.09;74.29
70229;BME280;57617;51.988;5.854;2022-10-22T04:01:29;100518.56;;;16.10;74.39
70229;BME280;57617;51.988;5.854;2022-10-22T04:03:55;100517.47;;;16.11;74.28
70229;BME280;57617;51.988;5.854;2022-10-22T04:06:20;100515.25;;;16.13;74.54
70229;BME280;57617;51.988;5.854;2022-10-22T04:08:46;100522.06;;;16.16;74.40
70229;BME280;57617;51.988;5.854;2022-10-22T04:11:13;100524.53;;;16.17;74.63
70229;BME280;57617;51.988;5.854;2022-10-22T04:13:39;100522.91;;;16.16;74.67
70229;BME280;57617;51.988;5.854;2022-10-22T04:16:16;100523.97;;;16.20;74.68
70229;BME280;57617;51.988;5.854;2022-10-22T04:18:43;100522.31;;;16.19;74.71
70229;BME280;57617;51.988;5.854;2022-10-22T04:21:11;100527.25;;;16.22;74.68
70229;BME280;57617;51.988;5.854;2022-10-22T04:23:37;100526.72;;;16.20;74.47
70229;BME280;57617;51.988;5.854;2022-10-22T04:26:05;100525.38;;;16.18;74.89
70229;BME280;57617;51.988;5.854;2022-10-22T04:28:31;100526.41;;;16.22;74.73
70229;BME280;57617;51.988;5.854;2022-10-22T04:30:56;100527.25;;;16.22;74.51
70229;BME280;57617;51.988;5.854;2022-10-22T04:33:22;100529.69;;;16.24;74.62
70229;BME280;57617;51.988;5.854;2022-10-22T04:35:47;100526.97;;;16.24;74.44
70229;BME280;57617;51.988;5.854;2022-10-22T04:38:13;100523.97;;;16.20;74.60
70229;BME280;57617;51.988;5.854;2022-10-22T04:40:38;100526.66;;;16.25;74.19
70229;BME280;57617;51.988;5.854;2022-10-22T04:43:03;100521.75;;;16.22;74.68
70229;BME280;57617;51.988;5.854;2022-10-22T04:45:29;100522.88;;;16.21;74.55
70229;BME280;57617;51.988;5.854;2022-10-22T04:47:54;100523.97;;;16.20;74.85
70229;BME280;57617;51.988;5.854;2022-10-22T04:50:20;100521.25;;;16.20;74.70
70229;BME280;57617;51.988;5.854;2022-10-22T04:52:45;100520.13;;;16.21;74.62
70229;BME280;57617;51.988;5.854;2022-10-22T04:55:11;100525.63;;;16.21;74.75
70229;BME280;57617;51.988;5.854;2022-10-22T04:57:36;100528.03;;;16.23;74.79
70229;BME280;57617;51.988;5.854;2022-10-22T05:00:01;100534.34;;;16.23;74.64
70229;BME280;57617;51.988;5.854;2022-10-22T05:02:27;100534.34;;;16.23;74.63
70229;BME280;57617;51.988;5.854;2022-10-22T05:04:52;100534.34;;;16.23;74.78
70229;BME280;57617;51.988;5.854;2022-10-22T05:07:17;100531.38;;;16.20;74.46
70229;BME280;57617;51.988;5.854;2022-10-22T05:09:43;100543.69;;;16.22;74.60
70229;BME280;57617;51.988;5.854;2022-10-22T05:12:08;100534.63;;;16.22;74.45
70229;BME280;57617;51.988;5.854;2022-10-22T05:14:33;100544.50;;;16.23;74.54
70229;BME280;57617;51.988;5.854;2022-10-22T05:16:58;100546.72;;;16.21;74.67
70229;BME280;57617;51.988;5.854;2022-10-22T05:19:26;100547.53;;;16.21;74.57
70229;BME280;57617;51.988;5.854;2022-10-22T05:21:54;100541.81;;;16.18;74.55
70229;BME280;57617;51.988;5.854;2022-10-22T05:24:20;100539.34;;;16.16;74.86
70229;BME280;57617;51.988;5.854;2022-10-22T05:26:50;100544.00;;;16.16;74.62
70229;BME280;57617;51.988;5.854;2022-10-22T05:29:16;100544.84;;;16.11;74.79
70229;BME280;57617;51.988;5.854;2022-10-22T05:31:41;100547.31;;;16.13;74.91
70229;BME280;57617;51.988;5.854;2022-10-22T05:34:07;100542.41;;;16.05;74.72
70229;BME280;57617;51.988;5.854;2022-10-22T05:36:32;100543.50;;;16.09;74.97
70229;BME280;57617;51.988;5.854;2022-10-22T05:38:57;100547.88;;;16.10;75.21
70229;BME280;57617;51.988;5.854;2022-10-22T05:41:24;100552.56;;;16.04;75.13
70229;BME280;57617;51.988;5.854;2022-10-22T05:43:50;100549.81;;;16.04;74.87
70229;BME280;57617;51.988;5.854;2022-10-22T05:46:19;100548.97;;;16.09;74.75
70229;BME280;57617;51.988;5.854;2022-10-22T05:49:03;100555.84;;;16.06;74.86
70229;BME280;57617;51.988;5.854;2022-10-22T05:51:32;100561.59;;;16.05;74.88
70229;BME280;57617;51.988;5.854;2022-10-22T05:53:59;100564.09;;;16.01;74.91
70229;BME280;57617;51.988;5.854;2022-10-22T05:56:26;100568.72;;;16.06;74.90
70229;BME280;57617;51.988;5.854;2022-10-22T05:58:52;100583.25;;;16.06;74.79
70229;BME280;57617;51.988;5.854;2022-10-22T06:01:28;100574.47;;;16.04;75.03
70229;BME280;57617;51.988;5.854;2022-10-22T06:04:05;100572.56;;;16.05;74.87
70229;BME280;57617;51.988;5.854;2022-10-22T06:06:43;100575.31;;;16.05;74.88
70229;BME280;57617;51.988;5.854;2022-10-22T06:09:21;100576.41;;;16.04;74.79
70229;BME280;57617;51.988;5.854;2022-10-22T06:11:48;100582.16;;;16.02;74.77
70229;BME280;57617;51.988;5.854;2022-10-22T06:14:14;100580.81;;;16.00;74.85
70229;BME280;57617;51.988;5.854;2022-10-22T06:16:39;100583.28;;;16.01;75.06
70229;BME280;57617;51.988;5.854;2022-10-22T06:19:05;100596.38;;;16.04;74.91
70229;BME280;57617;51.988;5.854;2022-10-22T06:21:31;100597.50;;;16.03;74.82
70229;BME280;57617;51.988;5.854;2022-10-22T06:23:58;100592.28;;;16.02;75.22
70229;BME280;57617;51.988;5.854;2022-10-22T06:26:23;100593.13;;;16.02;75.07
70229;BME280;57617;51.988;5.854;2022-10-22T06:28:49;100600.81;;;16.00;75.23
70229;BME280;57617;51.988;5.854;2022-10-22T06:31:14;100601.34;;;16.02;75.07
70229;BME280;57617;51.988;5.854;2022-10-22T06:33:39;100602.97;;;16.03;75.29
70229;BME280;57617;51.988;5.854;2022-10-22T06:36:09;100603.53;;;16.05;75.35
70229;BME280;57617;51.988;5.854;2022-10-22T06:38:35;100608.44;;;16.08;75.30
70229;BME280;57617;51.988;5.854;2022-10-22T06:41:11;100617.75;;;16.07;75.44
70229;BME280;57617;51.988;5.854;2022-10-22T06:43:36;100616.66;;;16.08;75.14
70229;BME280;57617;51.988;5.854;2022-10-22T06:46:04;100625.72;;;16.09;75.22
70229;BME280;57617;51.988;5.854;2022-10-22T06:48:31;100632.00;;;16.09;75.22
70229;BME280;57617;51.988;5.854;2022-10-22T06:51:00;100630.91;;;16.10;75.28
70229;BME280;57617;51.988;5.854;2022-10-22T06:53:27;100637.47;;;16.09;75.14
70229;BME280;57617;51.988;5.854;2022-10-22T06:55:52;100647.88;;;16.12;75.06
70229;BME280;57617;51.988;5.854;2022-10-22T06:58:17;100653.63;;;16.11;75.30
70229;BME280;57617;51.988;5.854;2022-10-22T07:00:42;100650.91;;;16.11;75.29
70229;BME280;57617;51.988;5.854;2022-10-22T07:03:11;100650.91;;;16.11;75.46
70229;BME280;57617;51.988;5.854;2022-10-22T07:05:37;100655.56;;;16.15;75.26
70229;BME280;57617;51.988;5.854;2022-10-22T07:08:02;100661.56;;;16.17;75.39
70229;BME280;57617;51.988;5.854;2022-10-22T07:10:28;100657.16;;;16.21;75.43
70229;BME280;57617;51.988;5.854;2022-10-22T07:12:53;100662.34;;;16.23;75.43
70229;BME280;57617;51.988;5.854;2022-10-22T07:15:18;100667.00;;;16.27;75.31
70229;BME280;57617;51.988;5.854;2022-10-22T07:17:43;100673.00;;;16.29;75.57
70229;BME280;57617;51.988;5.854;2022-10-22T07:20:09;100676.31;;;16.31;75.59
70229;BME280;57617;51.988;5.854;2022-10-22T07:22:34;100680.09;;;16.35;75.53
70229;BME280;57617;51.988;5.854;2022-10-22T07:25:00;100682.28;;;16.38;75.45
70229;BME280;57617;51.988;5.854;2022-10-22T07:27:25;100676.81;;;16.38;75.60
70229;BME280;57617;51.988;5.854;2022-10-22T07:29:50;100681.78;;;16.42;75.39
70229;BME280;57617;51.988;5.854;2022-10-22T07:32:16;100682.56;;;16.42;75.65
70229;BME280;57617;51.988;5.854;2022-10-22T07:34:41;100689.41;;;16.44;75.50
70229;BME280;57617;51.988;5.854;2022-10-22T07:37:06;100693.78;;;16.45;75.70
70229;BME280;57617;51.988;5.854;2022-10-22T07:39:31;100693.78;;;16.45;75.57
70229;BME280;57617;51.988;5.854;2022-10-22T07:41:57;100694.06;;;16.49;75.64
70229;BME280;57617;51.988;5.854;2022-10-22T07:44:22;100700.09;;;16.51;75.69
70229;BME280;57617;51.988;5.854;2022-10-22T07:46:47;100697.06;;;16.52;75.66
70229;BME280;57617;51.988;5.854;2022-10-22T07:49:12;100705.00;;;16.59;75.77
70229;BME280;57617;51.988;5.854;2022-10-22T07:51:38;100703.59;;;16.62;75.75
70229;BME280;57617;51.988;5.854;2022-10-22T07:54:03;100711.53;;;16.63;75.78
70229;BME280;57617;51.988;5.854;2022-10-22T07:56:28;100707.69;;;16.64;75.81
70229;BME280;57617;51.988;5.854;2022-10-22T07:58:53;100711.50;;;16.68;75.67
70229;BME280;57617;51.988;5.854;2022-10-22T08:01:19;100718.88;;;16.73;75.73
70229;BME280;57617;51.988;5.854;2022-10-22T08:03:44;100718.31;;;16.75;75.59
70229;BME280;57617;51.988;5.854;2022-10-22T08:06:12;100721.59;;;16.77;75.49
70229;BME280;57617;51.988;5.854;2022-10-22T08:08:37;100722.41;;;16.78;75.93
70229;BME280;57617;51.988;5.854;2022-10-22T08:11:03;100725.38;;;16.86;75.50
70229;BME280;57617;51.988;5.854;2022-10-22T08:13:29;100726.72;;;16.89;75.73
70229;BME280;57617;51.988;5.854;2022-10-22T08:15:55;100727.53;;;16.94;75.76
70229;BME280;57617;51.988;5.854;2022-10-22T08:18:21;100733.53;;;16.96;75.69
70229;BME280;57617;51.988;5.854;2022-10-22T08:20:46;100734.09;;;16.98;75.57
70229;BME280;57617;51.988;5.854;2022-10-22T08:23:11;100734.84;;;17.04;75.66
70229;BME280;57617;51.988;5.854;2022-10-22T08:25:36;100740.06;;;17.05;75.56
70229;BME280;57617;51.988;5.854;2022-10-22T08:28:02;100745.00;;;17.08;75.42
70229;BME280;57617;51.988;5.854;2022-10-22T08:30:27;100738.94;;;17.11;75.17
70229;BME280;57617;51.988;5.854;2022-10-22T08:32:54;100751.53;;;17.12;75.25
70229;BME280;57617;51.988;5.854;2022-10-22T08:35:19;100740.59;;;17.07;75.55
70229;BME280;57617;51.988;5.854;2022-10-22T08:37:44;100750.16;;;17.15;75.23
70229;BME280;57617;51.988;5.854;2022-10-22T08:40:39;100752.09;;;17.14;75.04
70229;BME280;57617;51.988;5.854;2022-10-22T08:43:15;100757.00;;;17.17;74.88
70229;BME280;57617;51.988;5.854;2022-10-22T08:46:06;100759.44;;;17.24;74.73
70229;BME280;57617;51.988;5.854;2022-10-22T08:48:44;100755.84;;;17.28;75.06
70229;BME280;57617;51.988;5.854;2022-10-22T08:51:14;100770.91;;;17.31;74.78
70229;BME280;57617;51.988;5.854;2022-10-22T08:53:52;100774.19;;;17.33;74.91
70229;BME280;57617;51.988;5.854;2022-10-22T08:56:23;100774.16;;;17.38;74.76
70229;BME280;57617;51.988;5.854;2022-10-22T08:58:53;100769.22;;;17.40;74.45
70229;BME280;57617;51.988;5.854;2022-10-22T09:01:37;100777.13;;;17.47;74.25
70229;BME280;57617;51.988;5.854;2022-10-22T09:06:41;100785.63;;;17.50;74.49
70229;BME280;57617;51.988;5.854;2022-10-22T09:09:14;100773.59;;;17.46;74.19
70229;BME280;57617;51.988;5.854;2022-10-22T09:11:43;100783.97;;;17.49;74.41
70229;BME280;57617;51.988;5.854;2022-10-22T09:14:15;100790.31;;;17.50;74.17
70229;BME280;57617;51.988;5.854;2022-10-22T09:17:20;100796.91;;;17.49;73.70
70229;BME280;57617;51.988;5.854;2022-10-22T09:20:52;100802.69;;;17.47;74.06
70229;BME280;57617;51.988;5.854;2022-10-22T09:25:48;100804.59;;;17.47;74.32
70229;BME280;57617;51.988;5.854;2022-10-22T09:28:15;100811.72;;;17.48;74.26
70229;BME280;57617;51.988;5.854;2022-10-22T09:30:40;100813.13;;;17.45;74.19
70229;BME280;57617;51.988;5.854;2022-10-22T09:33:22;100807.66;;;17.40;74.10
70229;BME280;57617;51.988;5.854;2022-10-22T09:35:57;100816.41;;;17.47;74.21
70229;BME280;57617;51.988;5.854;2022-10-22T09:38:32;100827.66;;;17.51;74.20
70229;BME280;57617;51.988;5.854;2022-10-22T09:40:59;100830.38;;;17.51;74.22
70229;BME280;57617;51.988;5.854;2022-10-22T09:43:27;100821.31;;;17.50;74.36
70229;BME280;57617;51.988;5.854;2022-10-22T09:46:02;100835.59;;;17.52;74.31
70229;BME280;57617;51.988;5.854;2022-10-22T09:48:31;100840.78;;;17.53;74.19
70229;BME280;57617;51.988;5.854;2022-10-22T09:53:35;100843.78;;;17.62;74.25
70229;BME280;57617;51.988;5.854;2022-10-22T09:56:06;100838.53;;;17.66;74.03
70229;BME280;57617;51.988;5.854;2022-10-22T09:58:46;100850.00;;;17.73;73.99
70229;BME280;57617;51.988;5.854;2022-10-22T10:01:27;100843.09;;;17.75;74.09
70229;BME280;57617;51.988;5.854;2022-10-22T10:03:53;100855.72;;;17.76;74.05
70229;BME280;57617;51.988;5.854;2022-10-22T10:06:30;100854.66;;;17.77;73.68
70229;BME280;57617;51.988;5.854;2022-10-22T10:08:56;100861.50;;;17.80;73.79
70229;BME280;57617;51.988;5.854;2022-10-22T10:11:28;100864.22;;;17.85;73.71
70229;BME280;57617;51.988;5.854;2022-10-22T10:14:27;100866.38;;;17.88;73.30
70229;BME280;57617;51.988;5.854;2022-10-22T10:17:02;100864.22;;;17.85;73.54
70229;BME280;57617;51.988;5.854;2022-10-22T10:19:58;100868.56;;;17.91;73.41
70229;BME280;57617;51.988;5.854;2022-10-22T10:23:03;100878.94;;;17.93;73.45
70229;BME280;57617;51.988;5.854;2022-10-22T10:25:41;100882.78;;;17.98;72.82
70229;BME280;57617;51.988;5.854;2022-10-22T10:30:45;100880.03;;;17.98;73.26
70229;BME280;57617;51.988;5.854;2022-10-22T10:36:00;100882.56;;;17.89;73.23
70229;BME280;57617;51.988;5.854;2022-10-22T10:41:18;100896.50;;;17.98;73.50
70229;BME280;57617;51.988;5.854;2022-10-22T10:44:03;100897.59;;;18.02;73.16
70229;BME280;57617;51.988;5.854;2022-10-22T10:47:15;100900.53;;;18.10;73.21
70229;BME280;57617;51.988;5.854;2022-10-22T10:49:45;100884.03;;;18.10;73.18
70229;BME280;57617;51.988;5.854;2022-10-22T10:52:21;100890.00;;;18.17;73.37
70229;BME280;57617;51.988;5.854;2022-10-22T11:00:31;100885.31;;;18.51;72.85
70229;BME280;57617;51.988;5.854;2022-10-22T11:05:57;100886.06;;;18.62;71.86
70229;BME280;57617;51.988;5.854;2022-10-22T11:08:29;100886.00;;;18.67;71.90
70229;BME280;57617;51.988;5.854;2022-10-22T11:11:02;100889.94;;;18.79;71.91
70229;BME280;57617;51.988;5.854;2022-10-22T11:13:33;100887.97;;;18.85;71.73
70229;BME280;57617;51.988;5.854;2022-10-22T11:16:03;100895.06;;;18.91;71.68
70229;BME280;57617;51.988;5.854;2022-10-22T11:18:53;100890.03;;;18.98;70.37
70229;BME280;57617;51.988;5.854;2022-10-22T11:21:21;100890.78;;;19.03;71.43
70229;BME280;57617;51.988;5.854;2022-10-22T11:23:59;100892.41;;;19.04;70.47
70229;BME280;57617;51.988;5.854;2022-10-22T11:26:47;100894.81;;;19.11;69.94
70229;BME280;57617;51.988;5.854;2022-10-22T11:29:24;100900.53;;;19.14;69.51
70229;BME280;57617;51.988;5.854;2022-10-22T11:31:54;100903.53;;;19.18;70.41
70229;BME280;57617;51.988;5.854;2022-10-22T11:34:33;100901.31;;;19.20;68.75
70229;BME280;57617;51.988;5.854;2022-10-22T11:37:01;100896.91;;;19.19;69.71
70229;BME280;57617;51.988;5.854;2022-10-22T11:39:42;100894.94;;;19.24;69.05
70229;BME280;57617;51.988;5.854;2022-10-22T11:42:22;100897.69;;;19.24;68.36
70229;BME280;57617;51.988;5.854;2022-10-22T11:50:57;100902.44;;;19.19;67.84
70229;BME280;57617;51.988;5.854;2022-10-22T11:55:52;100899.94;;;19.22;68.93
70229;BME280;57617;51.988;5.854;2022-10-22T12:06:18;100909.69;;;19.10;67.48
70229;BME280;57617;51.988;5.854;2022-10-22T12:11:19;100900.53;;;19.14;68.33
70229;BME280;57617;51.988;5.854;2022-10-22T12:16:24;100907.94;;;19.19;68.16
70229;BME280;57617;51.988;5.854;2022-10-22T12:18:55;100899.94;;;19.22;67.74
70229;BME280;57617;51.988;5.854;2022-10-22T12:21:23;100898.75;;;19.28;67.97
70229;BME280;57617;51.988;5.854;2022-10-22T12:23:49;100902.56;;;19.32;67.98
70229;BME280;57617;51.988;5.854;2022-10-22T12:26:26;100900.78;;;19.41;67.67
70229;BME280;57617;51.988;5.854;2022-10-22T12:29:08;100909.56;;;19.43;67.33
70229;BME280;57617;51.988;5.854;2022-10-22T12:31:35;100896.69;;;19.39;67.42
70229;BME280;57617;51.988;5.854;2022-10-22T12:34:01;100907.16;;;19.37;67.52
70229;BME280;57617;51.988;5.854;2022-10-22T12:36:28;100908.06;;;19.32;67.46
70229;BME280;57617;51.988;5.854;2022-10-22T12:38:54;100914.44;;;19.28;67.44
70229;BME280;57617;51.988;5.854;2022-10-22T12:41:30;100914.44;;;19.28;67.57
70229;BME280;57617;51.988;5.854;2022-10-22T12:44:03;100923.31;;;19.25;66.89
70229;BME280;57617;51.988;5.854;2022-10-22T12:46:31;100921.41;;;19.20;67.53
70229;BME280;57617;51.988;5.854;2022-10-22T12:49:03;100913.72;;;19.17;67.22
70229;BME280;57617;51.988;5.854;2022-10-22T12:51:30;100912.59;;;19.18;67.30
70229;BME280;57617;51.988;5.854;2022-10-22T12:54:05;100918.09;;;19.23;67.15
70229;BME280;57617;51.988;5.854;2022-10-22T12:56:33;100912.72;;;19.32;67.23
70229;BME280;57617;51.988;5.854;2022-10-22T12:59:01;100909.91;;;19.37;67.07
70229;BME280;57617;51.988;5.854;2022-10-22T13:01:31;100910.31;;;19.49;66.88
70229;BME280;57617;51.988;5.854;2022-10-22T13:06:28;100920.28;;;19.63;66.43
70229;BME280;57617;51.988;5.854;2022-10-22T13:09:14;100922.16;;;19.68;65.14
70229;BME280;57617;51.988;5.854;2022-10-22T13:11:47;100922.75;;;19.65;66.12
70229;BME280;57617;51.988;5.854;2022-10-22T13:14:30;100924.69;;;19.64;65.33
70229;BME280;57617;51.988;5.854;2022-10-22T13:17:04;100928.56;;;19.63;65.27
70229;BME280;57617;51.988;5.854;2022-10-22T13:22:35;100925.38;;;19.56;64.13
70229;BME280;57617;51.988;5.854;2022-10-22T13:30:24;100918.44;;;19.59;63.79
70229;BME280;57617;51.988;5.854;2022-10-22T13:33:01;100913.16;;;19.62;64.59
70229;BME280;57617;51.988;5.854;2022-10-22T13:35:29;100913.00;;;19.72;64.63
70229;BME280;57617;51.988;5.854;2022-10-22T13:37:56;100905.66;;;19.81;64.49
70229;BME280;57617;51.988;5.854;2022-10-22T13:40:21;100914.41;;;19.88;64.59
70229;BME280;57617;51.988;5.854;2022-10-22T13:42:47;100910.75;;;19.93;64.49
70229;BME280;57617;51.988;5.854;2022-10-22T13:45:12;100915.03;;;19.99;64.23
70229;BME280;57617;51.988;5.854;2022-10-22T13:47:38;100914.25;;;19.98;64.24
70229;BME280;57617;51.988;5.854;2022-10-22T13:50:12;100918.94;;;19.98;63.32
70229;BME280;57617;51.988;5.854;2022-10-22T13:52:55;100928.63;;;19.95;63.14
70229;BME280;57617;51.988;5.854;2022-10-22T13:57:55;100931.03;;;19.83;64.01
70229;BME280;57617;51.988;5.854;2022-10-22T14:00:22;100923.13;;;19.77;64.32
70229;BME280;57617;51.988;5.854;2022-10-22T14:02:50;100939.66;;;19.77;64.15
70229;BME280;57617;51.988;5.854;2022-10-22T14:05:17;100926.03;;;19.67;64.29
70229;BME280;57617;51.988;5.854;2022-10-22T14:07:43;100933.16;;;19.68;64.50
70229;BME280;57617;51.988;5.854;2022-10-22T14:10:15;100941.44;;;19.68;64.32